Terminal Aerodrome Forecast
Issued by NWS Wichita, KS

Home | Current Version | Previous Version | Graphics & Text | Print | Product List | Glossary On
Versions: 1 2 3 4 5 6 7 8 9 10 11 12 13 14 15 16 17 18 19 20
000
FTUS43 KICT 301746
TAFICT
TAF
KICT 301746Z 3018/3118 33019G30KT 5SM -DZ OVC012
     FM302100 32014G20KT P6SM BKN020
     FM310500 01005KT P6SM SCT060
     FM311200 04004KT P6SM BKN010
     FM311300 05005KT P6SM SCT008
     FM311700 07009KT P6SM SCT015=

USA.gov is the U.S. government's official web portal to all federal, state and local government web resources and services.